Corrèze (à définir) (19) - D

Date : 07/04/2012

Place Nom Licence Catégorie Club Temps CN à J-60 Points Différence Nouveau CN
1 DROIN Solène 17925 D16 4201RA 0:13:18 4634 4785 +151 4549
2 BODY Mathilde 10184 D16 7305RA 0:13:51 5413 4595 -818 5070
3 GIRARD Lucille 19689 D16 3705CE 0:14:05 4776 4519 -257 4849
4 HABERKORN Chloé 10396 D16 2105BO 0:14:17 5413 4456 -957 5412
5 BEAUVIR Maëlle 12709 D16 3502BR 0:14:22 4090 4430 +340 4534
6 PETER-JAN Lucile 19276 D16 3705CE 0:15:22 4565 4142 -423 4565
7 BORNARD Julie 9402 D16 7305RA 0:15:32 4337 4097 -240 4162
8 RIVOLLIER Isaline 22451 D16 4201RA 0:15:37 3898 4075 +177 3943
9 MOUSSU Sarah 22301 D16 3318AQ 0:15:47 2527 4032 +1505 2905
10 ROULLEAUX Julie 11559 D16 9105IF 0:15:49 5407 4024 -1383 4923
11 DUQUENNE Audrey 23885 D16 5907NO 0:16:18 3266 3905 +639 3603
12 DELENNE Camilla 13800 D16 1307PR 0:16:32 3808 3849 +41 3727
13 BERRARD Anna 19762 D16 2607RA 0:16:36 3885 3834 -51 3791
14 DUDOIGNON Chloé 18089 D14 2605RA 0:17:04 3187 3729 +542 3092
15 GUILBAUD Jenny 19480 D14 4709AQ 0:17:05 3136 3726 +590 3266
16 GUILLEMET Océane 22819 D16 3318AQ 0:17:06 3212 3722 +510 4201
17 BASSET Juliette 12398 D14 6911RA 0:17:18 3674 3679 +5 3533
18 LUTHRINGER Coline 10091 D16 8809LO 0:17:19 4352 3675 -677 4161
19 VALETTE Marion 10430 D16 6913RA 0:17:21 3633 3668 +35 3635
20 CHARDOT Marion 22315 D16 7807IF 0:18:13 3921 3494 -427 3886
21 PICAZO Marie 16555 D16 8405PR 0:18:15 4259 3487 -772 3886
22 DELENNE Joanna 17030 D14 1307PR 0:18:17 2483 3481 +998 2494
23 VERNOTTE Louise 23552 D16 1905LI 0:18:24 2917 3459 +542 3106
24 BONORA Marine 11542 D16 6906RA 0:18:28 3743 3446 -297 3575
25 FOL Loreline 16393 D16 3105MP 0:18:37 3325 3419 +94 3324
26 MASSIN Margot 22860 D16 5907NO 0:18:37 2653 3419 +766 2987
27 PINZELLI Tamara 23551 D16 1905LI 0:18:59 2776 3353 +577 3179
28 GIRARD Clarisse 22476 D14 2508FC 0:18:59 3058 3353 +295 2928
29 DOUSSET Mathilde 20731 D14 4709AQ 0:19:20 2697 3292 +595 2705
30 LEMERCIER Victoire 11454 D16 5407LO 0:19:26 3643 3275 -368 3585
31 BONORA Lise 11543 D14 6906RA 0:24:57 2148 2551 +403 2293
32 PENAUD Romane 14110 D16 1905LI 0:27:55 0 2280 1666